createdAt,value
2023-02-11T00:01:32.720Z,46.97
2023-02-11T00:04:02.376Z,46.43
2023-02-11T00:06:32.024Z,45.97
2023-02-11T00:09:01.036Z,49.00
2023-02-11T00:11:31.285Z,49.90
2023-02-11T00:14:02.178Z,48.20
2023-02-11T00:16:32.272Z,48.20
2023-02-11T00:19:01.158Z,43.20
2023-02-11T00:21:30.484Z,43.60
2023-02-11T00:23:59.860Z,49.27
2023-02-11T00:26:33.417Z,48.07
2023-02-11T00:29:03.252Z,44.27
2023-02-11T00:31:33.567Z,44.20
2023-02-11T00:34:02.126Z,47.30
2023-02-11T00:36:31.609Z,48.30
2023-02-11T00:39:00.871Z,44.33
2023-02-11T00:41:31.258Z,44.47
2023-02-11T00:44:01.029Z,50.20
2023-02-11T00:46:30.080Z,49.77
2023-02-11T00:48:58.593Z,45.70
2023-02-11T00:51:35.838Z,51.03
2023-02-11T00:54:05.880Z,49.23
2023-02-11T00:56:35.813Z,44.33
2023-02-11T00:59:04.110Z,47.57
2023-02-11T01:01:32.461Z,50.73
2023-02-11T01:04:00.802Z,54.10
2023-02-11T01:06:29.190Z,44.97
2023-02-11T01:08:57.549Z,52.77
2023-02-11T01:11:26.172Z,47.20
2023-02-11T01:13:56.211Z,52.17
2023-02-11T01:16:24.669Z,49.83
2023-02-11T01:18:54.906Z,47.43
2023-02-11T01:21:23.326Z,56.27
2023-02-11T01:23:53.636Z,56.67
2023-02-11T01:26:22.708Z,50.70
2023-02-11T01:28:52.217Z,52.53
2023-02-11T01:31:22.589Z,53.83
2023-02-11T01:33:50.817Z,52.97
2023-02-11T01:36:19.140Z,56.03
2023-02-11T01:38:47.539Z,49.30
2023-02-11T01:41:16.016Z,54.30
2023-02-11T01:43:48.276Z,49.90
2023-02-11T01:46:31.306Z,56.33
2023-02-11T01:49:06.852Z,55.67
2023-02-11T01:51:40.770Z,54.47
2023-02-11T01:54:31.821Z,59.90
2023-02-11T01:57:21.141Z,53.20
2023-02-11T02:00:14.836Z,48.00
2023-02-11T02:02:56.631Z,58.10
2023-02-11T02:05:34.052Z,62.43
2023-02-11T02:08:10.137Z,51.13
2023-02-11T02:10:43.037Z,60.50
2023-02-11T02:13:11.525Z,53.57
2023-02-11T02:15:43.089Z,49.97
2023-02-11T02:18:34.529Z,48.97
2023-02-11T02:21:57.568Z,54.57
2023-02-11T02:25:09.500Z,51.13
2023-02-11T02:27:59.703Z,55.60
2023-02-11T02:31:01.550Z,53.43
2023-02-11T02:33:49.648Z,58.47
2023-02-11T02:36:25.207Z,52.67
2023-02-11T02:39:01.929Z,40.60
2023-02-11T02:41:34.596Z,49.53
2023-02-11T02:44:03.598Z,53.13
2023-02-11T02:46:35.082Z,49.63
2023-02-11T02:49:07.767Z,65.03
2023-02-11T02:52:04.855Z,47.73
2023-02-11T02:55:05.603Z,48.77
2023-02-11T02:57:51.996Z,47.87
2023-02-11T03:00:34.784Z,48.37
2023-02-11T03:03:28.430Z,44.47
2023-02-11T03:06:05.904Z,56.17
2023-02-11T03:08:42.316Z,48.47
2023-02-11T03:11:13.273Z,50.67
2023-02-11T03:13:44.798Z,42.50
2023-02-11T03:16:19.685Z,49.57
2023-02-11T03:18:54.099Z,43.57
2023-02-11T03:21:26.238Z,52.87
2023-02-11T03:23:56.712Z,47.57
2023-02-11T03:26:31.123Z,46.57
2023-02-11T03:29:17.545Z,46.77
2023-02-11T03:31:57.226Z,51.73
2023-02-11T03:34:34.142Z,44.57
2023-02-11T03:37:08.967Z,46.17
2023-02-11T03:39:43.855Z,49.17
2023-02-11T03:42:15.669Z,46.77
2023-02-11T03:44:51.253Z,39.87
2023-02-11T03:51:54.622Z,47.57
2023-02-11T03:54:31.312Z,51.30
2023-02-11T03:57:03.171Z,43.47
2023-02-11T03:59:31.632Z,46.40
2023-02-11T04:02:00.239Z,42.33
2023-02-11T04:04:28.625Z,49.90
2023-02-11T04:07:00.081Z,40.00
2023-02-11T04:09:29.702Z,42.87
2023-02-11T04:11:57.949Z,35.70
2023-02-11T04:14:26.235Z,48.17
2023-02-11T04:16:54.446Z,36.57
2023-02-11T04:19:23.042Z,43.13
2023-02-11T04:21:51.347Z,54.07
2023-02-11T04:24:19.604Z,41.00
2023-02-11T04:26:49.260Z,35.10
2023-02-11T04:29:17.500Z,37.30
2023-02-11T04:31:46.002Z,40.13
2023-02-11T04:34:14.835Z,40.53
2023-02-11T04:36:43.319Z,41.40
2023-02-11T04:39:11.581Z,38.00
2023-02-11T04:41:39.803Z,33.77
2023-02-11T04:44:09.567Z,38.87
2023-02-11T04:46:38.116Z,38.13
2023-02-11T04:49:06.513Z,36.57
2023-02-11T04:51:34.841Z,37.77
2023-02-11T04:54:03.194Z,38.80
2023-02-11T04:56:31.510Z,32.70
2023-02-11T04:58:59.825Z,35.93
2023-02-11T05:01:29.523Z,35.47
2023-02-11T05:03:59.317Z,38.13
2023-02-11T05:06:27.846Z,35.43
2023-02-11T05:08:56.138Z,36.30
2023-02-11T05:11:26.610Z,27.33
2023-02-11T05:13:54.977Z,38.17
2023-02-11T05:16:23.450Z,40.73
2023-02-11T05:18:53.732Z,38.57
2023-02-11T05:21:22.274Z,31.47
2023-02-11T05:23:51.210Z,45.07
2023-02-11T05:26:19.930Z,34.53
2023-02-11T05:28:48.191Z,32.37
2023-02-11T05:31:16.902Z,32.37
2023-02-11T05:33:45.291Z,33.93
2023-02-11T05:36:16.668Z,32.77
2023-02-11T05:38:45.130Z,31.03
2023-02-11T05:41:13.955Z,34.33
2023-02-11T05:43:42.220Z,28.67
2023-02-11T05:46:10.568Z,32.87
2023-02-11T05:48:38.986Z,32.20
2023-02-11T05:51:07.350Z,35.30
2023-02-11T05:53:37.141Z,25.93
2023-02-11T05:56:06.511Z,29.70
2023-02-11T05:58:35.096Z,31.87
2023-02-11T06:01:03.405Z,34.53
2023-02-11T06:03:31.726Z,23.03
2023-02-11T06:05:59.992Z,33.07
2023-02-11T06:08:28.386Z,30.23
2023-02-11T06:10:57.935Z,26.43
2023-02-11T06:13:26.209Z,32.17
2023-02-11T06:15:58.219Z,31.07
2023-02-11T06:18:27.148Z,30.60
2023-02-11T06:20:55.439Z,25.97
2023-02-11T06:23:23.943Z,25.93
2023-02-11T06:25:52.724Z,29.10
2023-02-11T06:28:22.730Z,29.90
2023-02-11T06:30:51.100Z,24.93
2023-02-11T06:33:19.413Z,35.20
2023-02-11T06:35:47.596Z,23.50
2023-02-11T06:38:15.975Z,29.27
2023-02-11T06:40:49.309Z,27.10
2023-02-11T06:43:18.412Z,26.00
2023-02-11T06:45:55.205Z,30.27
2023-02-11T06:48:24.130Z,25.90
2023-02-11T06:50:52.309Z,29.13
2023-02-11T06:53:20.542Z,26.13
2023-02-11T06:55:49.001Z,32.50
2023-02-11T06:58:17.423Z,30.97
2023-02-11T07:00:47.118Z,22.57
2023-02-11T07:03:15.385Z,30.47
2023-02-11T07:05:44.552Z,25.57
2023-02-11T07:08:12.918Z,26.43
2023-02-11T07:10:41.326Z,27.53
2023-02-11T07:13:09.594Z,27.70
2023-02-11T07:15:38.705Z,18.63
2023-02-11T07:18:08.333Z,32.30
2023-02-11T07:20:38.617Z,36.83
2023-02-11T07:23:06.962Z,23.17
2023-02-11T07:25:36.606Z,31.33
2023-02-11T07:28:05.161Z,29.20
2023-02-11T07:30:34.064Z,29.57
2023-02-11T07:33:02.366Z,24.70
2023-02-11T07:35:32.365Z,27.80
2023-02-11T07:38:00.551Z,30.43
2023-02-11T07:40:29.024Z,23.57
2023-02-11T07:42:57.342Z,27.50
2023-02-11T07:45:25.924Z,30.30
2023-02-11T07:47:54.192Z,42.80
2023-02-11T07:50:22.403Z,36.23
2023-02-11T07:52:51.973Z,30.57
2023-02-11T07:55:20.224Z,30.97
2023-02-11T07:57:48.445Z,26.87
2023-02-11T08:00:20.804Z,31.63
2023-02-11T08:02:49.389Z,33.00
2023-02-11T08:05:17.794Z,34.63
2023-02-11T08:07:45.979Z,25.20
2023-02-11T08:10:15.751Z,32.17
2023-02-11T08:12:44.024Z,33.50
2023-02-11T08:15:12.637Z,35.33
2023-02-11T08:17:40.963Z,39.87
2023-02-11T08:20:09.971Z,28.77
2023-02-11T08:22:38.248Z,29.43
2023-02-11T08:25:07.614Z,35.20
2023-02-11T08:27:37.280Z,29.27
2023-02-11T08:30:06.799Z,39.87
2023-02-11T08:32:36.061Z,36.77
2023-02-11T08:35:04.409Z,33.93
2023-02-11T08:37:33.724Z,38.27
2023-02-11T08:40:02.051Z,35.50
2023-02-11T08:42:30.415Z,29.97
2023-02-11T08:44:59.938Z,32.83
2023-02-11T08:47:28.144Z,30.80
2023-02-11T08:49:56.350Z,31.90
2023-02-11T08:52:24.699Z,32.07
2023-02-11T08:54:52.967Z,38.37
2023-02-11T08:57:21.253Z,33.90
2023-02-11T08:59:49.714Z,31.67
2023-02-11T09:02:19.412Z,32.70
2023-02-11T09:04:47.777Z,29.70
2023-02-11T09:07:15.994Z,31.83
2023-02-11T09:09:44.251Z,30.73
2023-02-11T09:12:12.573Z,25.97
2023-02-11T09:14:41.919Z,26.60
2023-02-11T09:17:10.341Z,29.87
2023-02-11T09:19:40.069Z,31.13
2023-02-11T09:22:08.426Z,32.57
2023-02-11T09:24:37.355Z,25.93
2023-02-11T09:27:06.978Z,29.77
2023-02-11T09:29:35.174Z,29.43
2023-02-11T09:32:03.595Z,32.77
2023-02-11T09:34:32.688Z,35.00
2023-02-11T09:37:02.907Z,31.03
2023-02-11T09:39:31.360Z,30.17
2023-02-11T09:42:38.635Z,30.47
2023-02-11T09:45:17.259Z,29.63
2023-02-11T09:47:54.959Z,29.63
2023-02-11T09:50:31.141Z,33.13
2023-02-11T09:53:05.048Z,27.80
2023-02-11T09:55:39.391Z,31.03
2023-02-11T09:58:14.876Z,26.83
2023-02-11T10:00:52.642Z,34.60
2023-02-11T10:03:57.411Z,23.37
2023-02-11T10:06:42.550Z,28.57
2023-02-11T10:09:30.691Z,29.87
2023-02-11T10:12:19.478Z,26.77
2023-02-11T10:15:11.940Z,28.77
2023-02-11T10:17:53.571Z,29.40
2023-02-11T10:20:32.584Z,34.97
2023-02-11T10:23:09.217Z,34.83
2023-02-11T10:25:45.495Z,21.70
2023-02-11T10:28:18.009Z,33.10
2023-02-11T10:30:58.433Z,28.87
2023-02-11T10:33:32.516Z,30.03
2023-02-11T10:36:01.104Z,20.97
2023-02-11T10:38:29.705Z,28.80
2023-02-11T10:40:59.414Z,30.77
2023-02-11T10:43:31.523Z,24.33
2023-02-11T10:46:01.358Z,25.30
2023-02-11T10:48:43.865Z,29.53
2023-02-11T10:51:22.406Z,25.97
2023-02-11T10:54:13.829Z,26.87
2023-02-11T10:56:50.001Z,25.10
2023-02-11T10:59:29.146Z,32.87
2023-02-11T11:02:01.247Z,27.33
2023-02-11T11:04:45.304Z,25.13
2023-02-11T11:07:22.426Z,27.87
2023-02-11T11:09:54.960Z,24.20
2023-02-11T11:12:32.638Z,13.67
2023-02-11T11:15:05.189Z,22.97
2023-02-11T11:17:33.595Z,23.60
2023-02-11T11:20:27.206Z,21.87
2023-02-11T11:23:16.678Z,23.83
2023-02-11T11:25:59.402Z,23.00
2023-02-11T11:28:33.834Z,18.73
2023-02-11T11:31:02.780Z,15.77
2023-02-11T11:33:35.300Z,17.10
2023-02-11T11:36:09.938Z,20.00
2023-02-11T11:38:45.903Z,18.97
2023-02-11T11:41:27.165Z,16.50
2023-02-11T11:44:18.418Z,21.33
2023-02-11T11:46:54.050Z,20.10
2023-02-11T11:49:31.311Z,17.67
2023-02-11T11:52:15.765Z,20.83
2023-02-11T11:54:48.840Z,18.77
2023-02-11T11:57:26.708Z,16.13
2023-02-11T11:59:56.968Z,12.90
2023-02-11T12:02:55.219Z,20.67
2023-02-11T12:05:28.825Z,19.30
2023-02-11T12:08:14.161Z,20.30
2023-02-11T12:11:03.808Z,19.27
2023-02-11T12:13:50.326Z,15.93
2023-02-11T12:16:37.518Z,13.97
2023-02-11T12:19:48.891Z,18.67
2023-02-11T12:22:35.716Z,17.43
2023-02-11T12:25:27.206Z,19.93
2023-02-11T12:28:19.347Z,14.40
2023-02-11T12:31:30.809Z,12.53
2023-02-11T12:34:37.247Z,23.20
2023-02-11T12:37:20.179Z,16.97
2023-02-11T12:40:02.283Z,12.27
2023-02-11T12:43:14.657Z,15.30
2023-02-11T12:46:07.036Z,12.20
2023-02-11T12:49:03.642Z,12.80
2023-02-11T12:51:58.977Z,17.47
2023-02-11T12:54:36.418Z,18.03
2023-02-11T12:57:12.539Z,16.07
2023-02-11T12:59:55.249Z,16.23
2023-02-11T13:02:40.620Z,19.07
2023-02-11T13:05:24.494Z,16.60
2023-02-11T13:07:57.996Z,14.20
2023-02-11T13:10:33.537Z,16.67
2023-02-11T13:13:20.097Z,10.70
2023-02-11T13:15:57.608Z,15.37
2023-02-11T13:18:46.019Z,15.20
2023-02-11T13:21:37.261Z,12.30
2023-02-11T13:24:27.841Z,16.67
2023-02-11T13:27:09.366Z,15.77
2023-02-11T13:30:21.409Z,18.27
2023-02-11T13:33:22.032Z,16.20
2023-02-11T13:36:17.644Z,15.67
2023-02-11T13:39:02.567Z,18.70
2023-02-11T13:41:39.424Z,26.20
2023-02-11T13:44:24.549Z,21.73
2023-02-11T13:47:01.408Z,29.13
2023-02-11T13:49:37.459Z,29.97
2023-02-11T13:52:19.914Z,30.30
2023-02-11T13:54:53.904Z,27.47
2023-02-11T13:57:36.490Z,24.43
2023-02-11T14:00:51.045Z,24.63
2023-02-11T14:03:51.229Z,29.43
2023-02-11T14:07:00.943Z,23.97
2023-02-11T14:09:41.159Z,25.33
2023-02-11T14:12:32.282Z,21.87
2023-02-11T14:15:21.578Z,34.57
2023-02-11T14:17:50.089Z,35.50
2023-02-11T14:20:42.031Z,27.83
2023-02-11T14:23:27.220Z,25.23
2023-02-11T14:26:20.032Z,30.90
2023-02-11T14:28:55.765Z,31.07
2023-02-11T14:31:29.436Z,23.80
2023-02-11T14:34:28.154Z,28.67
2023-02-11T14:37:12.778Z,23.90
2023-02-11T14:40:01.641Z,29.67
2023-02-11T14:42:32.083Z,25.90
2023-02-11T14:45:10.833Z,25.10
2023-02-11T14:47:50.534Z,23.80
2023-02-11T14:50:25.700Z,23.83
2023-02-11T14:52:56.120Z,23.83
2023-02-11T14:55:33.488Z,19.40
2023-02-11T14:58:25.590Z,21.27
2023-02-11T15:01:00.073Z,20.23
2023-02-11T15:03:41.111Z,20.73
2023-02-11T15:06:18.730Z,14.70
2023-02-11T15:08:52.468Z,17.93
2023-02-11T15:11:24.835Z,16.43
2023-02-11T15:13:55.582Z,18.00
2023-02-11T15:16:29.550Z,19.00
2023-02-11T15:19:04.045Z,18.60
2023-02-11T15:21:36.668Z,21.23
2023-02-11T15:24:21.731Z,18.07
2023-02-11T15:27:01.596Z,21.77
2023-02-11T15:29:38.100Z,20.40
2023-02-11T15:32:18.281Z,25.70
2023-02-11T15:34:48.784Z,26.50
2023-02-11T15:37:22.884Z,22.17
2023-02-11T15:39:52.636Z,25.73
2023-02-11T15:42:35.812Z,28.63
2023-02-11T15:45:23.802Z,29.03
2023-02-11T15:47:58.383Z,27.30
2023-02-11T15:50:30.752Z,24.57
2023-02-11T15:53:03.850Z,23.40
2023-02-11T15:55:32.726Z,37.00
2023-02-11T15:58:03.349Z,23.23
2023-02-11T16:00:38.454Z,24.00
2023-02-11T16:03:23.190Z,24.30
2023-02-11T16:05:52.487Z,21.90
2023-02-11T16:08:29.179Z,22.23
2023-02-11T16:11:03.141Z,14.80
2023-02-11T16:13:33.814Z,19.00
2023-02-11T16:16:05.926Z,20.80
2023-02-11T16:18:40.517Z,29.93
2023-02-11T16:21:17.381Z,26.17
2023-02-11T16:23:53.639Z,23.27
2023-02-11T16:26:31.165Z,25.00
2023-02-11T16:29:11.398Z,23.23
2023-02-11T16:31:43.922Z,28.23
2023-02-11T16:34:20.168Z,29.00
2023-02-11T16:36:49.726Z,38.03
2023-02-11T16:39:22.467Z,29.43
2023-02-11T16:41:53.423Z,32.20
2023-02-11T16:44:21.733Z,34.87
2023-02-11T16:46:50.203Z,29.30
2023-02-11T16:49:24.879Z,38.67
2023-02-11T16:51:57.817Z,36.63
2023-02-11T16:54:26.256Z,39.93
2023-02-11T16:56:54.789Z,48.30
2023-02-11T16:59:23.119Z,32.50
2023-02-11T17:01:54.108Z,35.07
2023-02-11T17:04:28.274Z,37.33
2023-02-11T17:06:58.467Z,32.73
2023-02-11T17:09:31.091Z,36.57
2023-02-11T17:12:00.150Z,27.87
2023-02-11T17:14:28.665Z,33.30
2023-02-11T17:16:58.230Z,25.23
2023-02-11T17:19:28.290Z,30.30
2023-02-11T17:21:56.657Z,29.17
2023-02-11T17:24:24.964Z,41.13
2023-02-11T17:26:54.693Z,43.20
2023-02-11T17:29:26.067Z,39.73
2023-02-11T17:31:55.245Z,49.73
2023-02-11T17:34:24.929Z,40.83
2023-02-11T17:36:54.985Z,42.03
2023-02-11T17:39:23.933Z,38.93
2023-02-11T17:41:52.323Z,38.13
2023-02-11T17:44:20.669Z,31.70
2023-02-11T17:46:48.941Z,42.03
2023-02-11T17:49:17.318Z,30.33
2023-02-11T17:51:45.859Z,35.23
2023-02-11T17:54:18.960Z,38.37
2023-02-11T17:56:50.618Z,32.60
2023-02-11T17:59:19.359Z,36.37
2023-02-11T18:01:47.940Z,35.80
2023-02-11T18:04:19.554Z,36.63
2023-02-11T18:06:48.728Z,40.37
2023-02-11T18:09:18.723Z,37.17
2023-02-11T18:11:48.467Z,28.17
2023-02-11T18:14:17.259Z,30.00
2023-02-11T18:16:46.334Z,33.53
2023-02-11T18:19:14.984Z,35.53
2023-02-11T18:21:43.486Z,36.00
2023-02-11T18:24:12.602Z,36.67
2023-02-11T18:26:42.283Z,36.07
2023-02-11T18:29:11.125Z,29.97
2023-02-11T18:31:40.755Z,32.83
2023-02-11T18:34:10.625Z,40.00
2023-02-11T18:36:39.462Z,37.07
2023-02-11T18:39:07.877Z,26.80
2023-02-11T18:41:36.123Z,32.33
2023-02-11T18:44:06.121Z,39.43
2023-02-11T18:46:35.256Z,35.73
2023-02-11T18:49:03.563Z,40.13
2023-02-11T18:51:32.420Z,36.67
2023-02-11T18:54:01.326Z,39.87
2023-02-11T18:56:29.796Z,38.40
2023-02-11T18:59:01.343Z,46.10
2023-02-11T19:01:34.206Z,33.93
2023-02-11T19:04:06.079Z,40.87
2023-02-11T19:06:37.697Z,41.83
2023-02-11T19:09:10.236Z,42.33
2023-02-11T19:11:50.403Z,44.37
2023-02-11T19:14:23.581Z,46.60
2023-02-11T19:16:56.038Z,42.40
2023-02-11T19:19:30.476Z,47.90
2023-02-11T19:22:00.663Z,46.27
2023-02-11T19:24:30.817Z,202.00
2023-02-11T19:27:02.691Z,99.33
2023-02-11T19:29:34.897Z,60.17
2023-02-11T19:32:06.725Z,49.87
2023-02-11T19:34:40.969Z,47.97
2023-02-11T19:37:10.804Z,44.30
2023-02-11T19:39:39.423Z,44.53
2023-02-11T19:42:07.848Z,48.63
2023-02-11T19:44:36.262Z,43.80
2023-02-11T19:47:06.798Z,45.10
2023-02-11T19:49:35.496Z,31.80
2023-02-11T19:52:04.294Z,47.80
2023-02-11T19:54:32.676Z,39.03
2023-02-11T19:57:00.944Z,41.47
2023-02-11T19:59:29.184Z,38.93
2023-02-11T20:01:58.065Z,52.20
2023-02-11T20:04:31.880Z,41.33
2023-02-11T20:07:00.355Z,50.57
2023-02-11T20:09:31.134Z,46.83
2023-02-11T20:12:00.882Z,48.57
2023-02-11T20:14:29.361Z,52.20
2023-02-11T20:16:59.176Z,42.00
2023-02-11T20:19:30.667Z,41.90
2023-02-11T20:21:58.979Z,53.37
2023-02-11T20:24:27.541Z,48.07
2023-02-11T20:26:56.446Z,50.37
2023-02-11T20:29:26.378Z,49.27
2023-02-11T20:31:55.178Z,53.73
2023-02-11T20:34:24.934Z,55.40
2023-02-11T20:36:54.833Z,56.07
2023-02-11T20:39:25.440Z,47.93
2023-02-11T20:41:54.535Z,57.33
2023-02-11T20:44:23.736Z,54.87
2023-02-11T20:46:53.980Z,50.87
2023-02-11T20:49:24.876Z,64.07
2023-02-11T20:51:55.508Z,57.07
2023-02-11T20:54:25.756Z,65.97
2023-02-11T20:56:55.412Z,61.80
2023-02-11T20:59:24.161Z,56.70
2023-02-11T21:01:56.613Z,58.37
2023-02-11T21:04:29.399Z,53.03
2023-02-11T21:07:01.651Z,61.97
2023-02-11T21:09:33.183Z,60.53
2023-02-11T21:12:02.385Z,49.20
2023-02-11T21:14:31.404Z,56.43
2023-02-11T21:16:59.938Z,46.83
2023-02-11T21:19:28.346Z,48.60
2023-02-11T21:22:00.642Z,59.23
2023-02-11T21:24:30.713Z,47.83
2023-02-11T21:26:59.221Z,47.17
2023-02-11T21:29:27.456Z,56.53
2023-02-11T21:31:56.019Z,42.80
2023-02-11T21:34:24.524Z,44.83
2023-02-11T21:36:53.702Z,51.10
2023-02-11T21:39:23.296Z,39.30
2023-02-11T21:41:52.088Z,36.50
2023-02-11T21:44:20.366Z,41.67
2023-02-11T21:46:48.717Z,37.57
2023-02-11T21:49:17.052Z,40.97
2023-02-11T21:51:45.312Z,40.97
2023-02-11T21:54:13.599Z,40.00
2023-02-11T21:56:43.200Z,41.57
2023-02-11T21:59:14.505Z,32.17
2023-02-11T22:01:42.753Z,35.17
2023-02-11T22:04:11.388Z,41.43
2023-02-11T22:06:40.050Z,33.27
2023-02-11T22:09:11.347Z,32.90
2023-02-11T22:11:39.621Z,26.50
2023-02-11T22:14:09.298Z,34.40
2023-02-11T22:16:37.770Z,27.30
2023-02-11T22:19:07.342Z,28.90
2023-02-11T22:21:35.558Z,30.63
2023-02-11T22:24:03.788Z,26.83
2023-02-11T22:26:32.331Z,31.67
2023-02-11T22:29:01.077Z,27.20
2023-02-11T22:31:33.089Z,25.13
2023-02-11T22:34:03.134Z,24.93
2023-02-11T22:36:34.488Z,28.97
2023-02-11T22:39:04.601Z,29.90
2023-02-11T22:41:33.325Z,27.67
2023-02-11T22:44:01.785Z,29.33
2023-02-11T22:46:31.514Z,37.17
2023-02-11T22:48:59.757Z,29.50
2023-02-11T22:51:30.771Z,24.90
2023-02-11T22:54:01.501Z,33.77
2023-02-11T22:56:31.621Z,39.70
2023-02-11T22:59:01.893Z,33.40
2023-02-11T23:01:32.589Z,32.80
2023-02-11T23:04:03.763Z,33.23
2023-02-11T23:06:32.224Z,27.27
2023-02-11T23:09:00.812Z,29.43
2023-02-11T23:11:31.778Z,34.27
2023-02-11T23:14:01.567Z,30.13
2023-02-11T23:16:35.011Z,22.20
2023-02-11T23:19:06.463Z,26.20
2023-02-11T23:21:37.951Z,23.57
2023-02-11T23:24:12.486Z,24.20
2023-02-11T23:26:42.785Z,28.17
2023-02-11T23:29:12.303Z,19.53
2023-02-11T23:31:45.890Z,22.40
2023-02-11T23:34:17.106Z,24.33
2023-02-11T23:36:45.798Z,17.87
2023-02-11T23:39:17.046Z,16.13
2023-02-11T23:41:46.438Z,17.17
2023-02-11T23:44:14.890Z,15.37
2023-02-11T23:46:44.552Z,14.37
2023-02-11T23:49:12.987Z,14.93
2023-02-11T23:51:41.309Z,16.17
2023-02-11T23:54:12.632Z,13.53
2023-02-11T23:56:42.260Z,18.80
2023-02-11T23:59:11.535Z,13.87
